1998 NATHAN (1998079S10145)


On this page: IBTrACS data - Map and Plots - Positions - Intensities - Original source data

Summary

Start Mar 19
End Mar 31
Basin SP
LMI 65 kt
Sources jtwc_sh
bom
wellington
neumann
In WMO? Yes
Previous storm 1998 YALI (SP)
Previous in basin 1998 YALI (SP)
Concurrent storms 1998 ELSIE (SI)
1998 FIONA (SI)
1998 YALI (SP)
1998 NATHAN (SP)
1998 ZUMAN (SP)
Next in basin 1998 ZUMAN (SP)
Next storm 1998 ZUMAN (SP)

top of page IBTrACS Data: File Access

top of page HURSAT Data: File Access

Image of storm

top of page Plots:

Map of storm track will not appear if FTP is down
Time series of cyclone Maximum Sustained Wind will not appear if FTP is down
Time series of cyclone Minimum Central Pressure will not appear if FTP is down

top of page Track Data:Position

jtwc_sh bom wellington neumann
Date Lat Lon Lat Lon Lat Lon Lat Lon
1998-03-19 12:00:00 -9.8 145.3 -9.8 145.3
1998-03-19 18:00:00 -10.3 144.8 -10.3 144.8
1998-03-20 00:00:00 -10.6 144.5 -10.6 144.5
1998-03-20 06:00:00 -10.8 144.2 -10.8 144.2
1998-03-20 12:00:00 -11.0 143.9 -11.0 143.9
1998-03-20 18:00:00 -11.2 143.7 -11.2 143.4 -11.2 143.4 -11.2 143.7
1998-03-21 00:00:00 -11.5 143.8 -11.2 143.7 -11.2 143.7 -11.5 143.8
1998-03-21 06:00:00 -11.6 144.1 -11.3 143.9 -11.3 143.9 -11.6 144.1
1998-03-21 12:00:00 -11.6 144.5 -11.3 144.2 -11.3 144.2 -11.6 144.5
1998-03-21 18:00:00 -11.8 144.9 -11.3 144.4 -11.3 144.4 -11.8 144.9
1998-03-22 00:00:00 -11.9 145.2 -11.4 144.6 -11.4 144.6 -11.9 145.2
1998-03-22 06:00:00 -12.2 145.5 -11.8 144.9 -11.8 144.9 -12.2 145.5
1998-03-22 12:00:00 -12.6 145.6 -12.5 145.1 -12.5 145.1 -12.6 145.6
1998-03-22 18:00:00 -13.0 145.6 -13.0 145.3 -13.0 145.3 -13.0 145.6
1998-03-23 00:00:00 -13.4 145.6 -13.5 145.7 -13.5 145.7 -13.4 145.6
1998-03-23 06:00:00 -13.8 145.6 -13.9 145.8 -13.9 145.8 -13.8 145.6
1998-03-23 12:00:00 -14.3 145.8 -14.2 146.1 -14.2 146.1 -14.3 145.8
1998-03-23 18:00:00 -14.4 146.3 -14.2 146.4 -14.2 146.4 -14.4 146.3
1998-03-24 00:00:00 -14.4 147.0 -14.0 147.1 -14.0 147.1 -14.4 147.0
1998-03-24 06:00:00 -14.2 147.8 -13.8 147.9 -13.8 147.9 -14.2 147.8
1998-03-24 12:00:00 -13.8 148.6 -13.5 148.6 -13.5 148.6 -13.8 148.6
1998-03-24 18:00:00 -13.5 149.9 -13.3 149.8 -13.3 149.8 -13.5 149.9
1998-03-25 00:00:00 -13.2 151.7 -13.0 151.6 -13.0 151.6 -13.2 151.7
1998-03-25 06:00:00 -13.1 153.4 -12.9 153.4 -12.9 153.4 -13.1 153.4
1998-03-25 12:00:00 -13.1 154.9 -12.8 154.9 -12.8 154.9 -13.1 154.9
jtwc_sh bom wellington neumann
1998-03-25 18:00:00 -13.2 156.0 -13.0 155.9 -13.0 155.9 -13.2 156.0
1998-03-26 00:00:00 -13.3 156.7 -13.2 156.7 -13.2 156.7 -13.3 156.7
1998-03-26 06:00:00 -13.5 157.5 -13.7 157.5 -13.7 157.5 -13.5 157.5
1998-03-26 12:00:00 -13.8 158.2 -14.1 158.1 -14.1 158.1 -13.8 158.2
1998-03-26 18:00:00 -14.3 158.6 -14.6 158.4 -14.6 158.4 -14.3 158.6
1998-03-27 00:00:00 -14.9 158.7 -14.8 158.7 -14.9 158.7
1998-03-27 06:00:00 -15.4 158.7 -15.0 158.5 -15.4 158.7
1998-03-27 12:00:00 -15.8 158.6 -15.2 158.3 -15.8 158.6
1998-03-27 18:00:00 -16.0 158.3 -15.4 157.9 -16.0 158.3
1998-03-28 00:00:00 -16.3 157.9 -15.7 157.4 -16.3 157.9
1998-03-28 06:00:00 -16.6 157.5 -15.8 157.0 -16.6 157.5
1998-03-28 12:00:00 -16.6 157.0 -15.9 156.3 -16.6 157.0
1998-03-28 18:00:00 -16.3 156.2 -16.0 155.4 -16.3 156.2
1998-03-29 00:00:00 -16.1 155.1 -16.0 154.6 -16.1 155.1
1998-03-29 06:00:00 -15.7 154.0 -15.8 153.5 -15.7 154.0
1998-03-29 12:00:00 -15.2 152.9 -15.7 152.5 -15.2 152.9
1998-03-29 18:00:00 -15.1 152.0 -15.6 151.5 -15.1 152.0
1998-03-30 00:00:00 -15.1 151.0 -15.4 150.4 -15.1 151.0
1998-03-30 06:00:00 -15.0 150.0 -15.0 148.6 -15.0 150.0
1998-03-30 12:00:00 -14.9 148.5 -14.8 147.5 -14.9 148.5
1998-03-30 18:00:00 -14.5 147.1 -14.6 146.3 -14.5 147.1
1998-03-31 00:00:00 -13.5 144.9 -13.9 145.0 -13.5 144.9

top of pageTrack Data:Intensity

jtwc_sh bom wellington neumann
Date Wind Pres Wind Pres Wind Pres Wind Pres
1998-03-19 12:00:00 20. 20.
1998-03-19 18:00:00 25. 25.
1998-03-20 00:00:00 25. 25.
1998-03-20 06:00:00 25. 25.
1998-03-20 12:00:00 25. 25.
1998-03-20 18:00:00 25. 41. 1000. 30. 997. 25.
1998-03-21 00:00:00 35. 41. 995. 40. 990. 35.
1998-03-21 06:00:00 35. 51. 990. 45. 987. 35.
1998-03-21 12:00:00 40. 51. 990. 50. 985. 40.
1998-03-21 18:00:00 40. 51. 990. 50. 985. 40.
1998-03-22 00:00:00 40. 51. 990. 50. 985. 40.
1998-03-22 06:00:00 40. 51. 990. 45. 987. 40.
1998-03-22 12:00:00 40. 45. 995. 45. 987. 40.
1998-03-22 18:00:00 40. 45. 995. 45. 987. 40.
1998-03-23 00:00:00 55. 45. 995. 45. 987. 55.
1998-03-23 06:00:00 55. 45. 995. 45. 987. 55.
1998-03-23 12:00:00 65. 45. 995. 45. 987. 65.
1998-03-23 18:00:00 65. 45. 995. 40. 990. 65.
1998-03-24 00:00:00 60. 51. 990. 50. 985. 60.
1998-03-24 06:00:00 55. 51. 990. 50. 985. 55.
1998-03-24 12:00:00 55. 51. 990. 50. 985. 55.
1998-03-24 18:00:00 55. 51. 990. 50. 985. 55.
1998-03-25 00:00:00 50. 51. 990. 50. 985. 50.
1998-03-25 06:00:00 50. 45. 995. 45. 987. 50.
1998-03-25 12:00:00 50. 45. 995. 45. 987. 50.
jtwc_sh bom wellington neumann
1998-03-25 18:00:00 50. 45. 995. 45. 987. 50.
1998-03-26 00:00:00 45. 45. 995. 45. 987. 45.
1998-03-26 06:00:00 40. 45. 995. 40. 990. 40.
1998-03-26 12:00:00 40. 45. 995. 40. 990. 40.
1998-03-26 18:00:00 40. 45. 995. 35. 995. 40.
1998-03-27 00:00:00 40. 30. 997. 40.
1998-03-27 06:00:00 40. 30. 999. 40.
1998-03-27 12:00:00 40. 25. 1002. 40.
1998-03-27 18:00:00 40. 25. 1002. 40.
1998-03-28 00:00:00 40. 25. 1006. 40.
1998-03-28 06:00:00 40. 30. 997. 40.
1998-03-28 12:00:00 40. 30. 997. 40.
1998-03-28 18:00:00 40. 25. 1002. 40.
1998-03-29 00:00:00 40. 25. 1002. 40.
1998-03-29 06:00:00 40. 25. 1003. 40.
1998-03-29 12:00:00 40. 25. 1004. 40.
1998-03-29 18:00:00 35. 25. 1004. 35.
1998-03-30 00:00:00 35. 25. 1005. 35.
1998-03-30 06:00:00 35. 25. 1006. 35.
1998-03-30 12:00:00 35. 25. 1007. 35.
1998-03-30 18:00:00 35. 25. 1007. 35.
1998-03-31 00:00:00 30. 25. 1007. 30.

top of page Links to source data

Source Source file Format
jtwc_sh bsh301998.txt ATCF
bom IDCKMSTM0S.csv:Line=20936:NATHAN CSV file (from Excel file)
wellington TC_BT_1967_2006.csv:Line=6062:NATHAN Text table
neumann tracks.sh:Storm=1132:NATHAN:BSH301998:JTWC HURDAT